< < Back
Terminal Aerodrome Forecast


Current Version              Previous Versions:   1  2  3  4  5  6  7  8  9  

Terminal Aerodrome Forecast

172
FTUS44 KBMX 241729
TAFMGM
TAF
KMGM 241729Z 2418/2518 16005KT P6SM SCT040
     FM241900 13005KT P6SM VCTS BKN040CB
      TEMPO 2419/2422 4SM TSRA BKN030CB
     FM250100 10002KT P6SM SCT250=

Latest METAR

862
SAUS80 KWBC 250100 CCA
MTRMGM
METAR KMGM 250053Z 00000KT 10SM CLR 28/24 A3012 RMK AO2 SLP195
T02780239


USA.gov is the U.S. government's official web portal to all federal, state and local government web resources and services.